CZEM/ZEM METAR and TAF weather

Enter ICAO airport designator
Station Type Date Time Source
CZEM METAR 2019/12/12 19:00 UTC NOAA

CZEM 121900Z 18008KT 10SM BKN022 M23/M27 A3037 RMK SC6 LAST STFD OBS/NEXT 151500 UTC SLP287


Station Type Date Time Source
CZEM Decoded METAR 2019/12/12 19:00 UTC NOAA

Eastmain River Airport, Canada (CZEM) 52-14N 078-31W
Dec 12, 2019 - 02:00 PM EST / 2019.12.12 1900 UTC
Wind: from the S (180 degrees) at 9 MPH (8 KT):0
Visibility: 10 mile(s):0
Sky conditions: mostly cloudy
Temperature: -9 F (-23 C)
Windchill: -25 F (-32 C):2
Dew Point: -16 F (-27 C)
Relative Humidity: 69%
Pressure (altimeter): 30.37 in. Hg (1028 hPa)
ob: CZEM 121900Z 18008KT 10SM BKN022 M23/M27 A3037 RMK SC6 LAST STFD OBS/NEXT 151500 UTC SLP287
cycle: 19

Station Type Date Time Source
CZEM TAF UTC NOAA

Error!

Example: see airport list